Time;durP1;ratioP1;P1;durP2;ratioP2;P2;SDS_P1;SDS_P2;PMS_P1;PMS_P2;Temp;Humidity;BMP_temperature;BMP_pressure;BME280_temperature;BME280_humidity;BME280_pressure;Samples;Min_cycle;Max_cycle;Signal;HPM_P1;HPM_P2
2023/08/07 00:00:22;;;;;;;4.00;1.08;;;14.60;99.90;;;;;;5005386;28;20053;-35
2023/08/07 00:02:48;;;;;;;7.55;0.88;;;14.60;99.90;;;;;;5004126;28;20045;-35
2023/08/07 00:05:14;;;;;;;6.00;0.90;;;14.70;99.90;;;;;;5009237;28;20411;-35
2023/08/07 00:07:40;;;;;;;3.83;0.80;;;14.70;99.90;;;;;;5011729;28;20165;-35
2023/08/07 00:10:07;;;;;;;3.75;0.93;;;14.70;99.90;;;;;;5007615;28;20247;-35
2023/08/07 00:12:32;;;;;;;5.72;0.80;;;14.70;99.90;;;;;;5008613;28;20049;-35
2023/08/07 00:14:58;;;;;;;4.95;1.25;;;14.70;99.90;;;;;;5001621;28;20050;-35
2023/08/07 00:17:23;;;;;;;4.97;1.00;;;14.70;99.90;;;;;;5006600;28;20403;-35
2023/08/07 00:19:49;;;;;;;7.40;1.10;;;14.70;99.90;;;;;;5010008;28;20119;-35
2023/08/07 00:22:15;;;;;;;4.88;0.90;;;14.70;99.90;;;;;;5007903;28;20081;-36
2023/08/07 00:24:40;;;;;;;9.05;1.10;;;14.70;99.90;;;;;;5007654;28;20054;-35
2023/08/07 00:27:09;;;;;;;6.03;1.02;;;14.70;99.90;;;;;;5010546;28;20054;-35
2023/08/07 00:29:36;;;;;;;7.30;1.15;;;14.70;99.90;;;;;;5007308;28;20497;-35
2023/08/07 00:32:02;;;;;;;7.22;0.88;;;14.70;99.90;;;;;;5006851;28;20419;-35
2023/08/07 00:34:28;;;;;;;8.82;1.45;;;14.70;99.90;;;;;;5007798;28;20092;-35
2023/08/07 00:36:54;;;;;;;9.05;2.35;;;14.70;99.90;;;;;;5007341;28;20081;-35
2023/08/07 00:39:19;;;;;;;5.35;1.50;;;14.70;99.90;;;;;;5019133;28;20779;-35
2023/08/07 00:41:45;;;;;;;6.90;2.42;;;14.70;99.90;;;;;;5009589;28;20069;-35
2023/08/07 00:44:11;;;;;;;8.07;1.25;;;14.70;99.90;;;;;;5008851;28;20054;-35
2023/08/07 00:46:38;;;;;;;5.82;1.30;;;14.70;99.90;;;;;;5007890;28;21641;-36
2023/08/07 00:49:05;;;;;;;7.15;1.63;;;14.70;99.90;;;;;;5005407;28;20506;-35
2023/08/07 00:51:31;;;;;;;6.93;1.35;;;14.70;99.90;;;;;;5001321;28;20131;-35
2023/08/07 00:53:57;;;;;;;8.80;1.73;;;14.70;99.90;;;;;;5010131;28;20045;-35
2023/08/07 00:56:23;;;;;;;8.18;1.50;;;14.70;99.90;;;;;;5008433;28;20084;-35
2023/08/07 00:58:50;;;;;;;6.00;1.30;;;14.70;99.90;;;;;;5010780;28;20050;-35
2023/08/07 01:01:16;;;;;;;6.55;1.50;;;14.70;99.90;;;;;;5006512;28;20492;-35
2023/08/07 01:03:41;;;;;;;3.85;1.10;;;14.70;99.90;;;;;;5009209;28;20080;-35
2023/08/07 01:06:07;;;;;;;5.75;1.30;;;14.70;99.90;;;;;;5006935;28;20140;-35
2023/08/07 01:08:33;;;;;;;7.05;2.17;;;14.70;99.90;;;;;;5006357;28;20064;-35
2023/08/07 01:11:17;;;;;;;6.28;1.25;;;14.60;99.90;;;;;;4992312;28;20084;-35
2023/08/07 01:13:51;;;;;;;3.78;1.08;;;14.60;99.90;;;;;;5011569;28;20058;-35
2023/08/07 01:16:25;;;;;;;7.35;1.73;;;14.60;99.90;;;;;;4999280;28;20058;-35
2023/08/07 01:18:52;;;;;;;3.53;0.65;;;14.60;99.90;;;;;;5006081;28;20048;-35
2023/08/07 01:21:19;;;;;;;5.40;1.02;;;14.50;99.90;;;;;;5007524;28;20085;-35
2023/08/07 01:23:46;;;;;;;6.63;0.90;;;14.50;99.90;;;;;;5012290;28;20119;-35
2023/08/07 01:26:13;;;;;;;3.50;0.73;;;14.50;99.90;;;;;;5010479;28;20045;-35
2023/08/07 01:28:45;;;;;;;5.57;0.85;;;14.50;99.90;;;;;;5012866;28;20045;-35
2023/08/07 01:31:15;;;;;;;6.03;0.85;;;14.50;99.90;;;;;;5005681;28;20129;-35
2023/08/07 01:33:50;;;;;;;4.38;0.90;;;14.50;99.90;;;;;;5009760;28;20050;-35
2023/08/07 01:36:17;;;;;;;7.82;0.90;;;14.50;99.90;;;;;;5006298;28;20058;-35
2023/08/07 01:38:43;;;;;;;4.40;0.80;;;14.40;99.90;;;;;;5012346;28;20058;-35
2023/08/07 01:41:09;;;;;;;4.80;0.60;;;14.50;99.90;;;;;;5007114;28;20057;-35
2023/08/07 01:43:35;;;;;;;5.05;0.93;;;14.50;99.90;;;;;;5007583;28;20471;-35
2023/08/07 01:46:02;;;;;;;5.32;0.77;;;14.50;99.90;;;;;;5006141;28;20037;-35
2023/08/07 01:48:28;;;;;;;6.90;0.98;;;14.50;99.90;;;;;;5013042;28;20526;-35
2023/08/07 01:50:54;;;;;;;4.30;1.13;;;14.50;99.90;;;;;;5025252;28;20054;-35
2023/08/07 01:53:20;;;;;;;3.63;0.50;;;14.50;99.90;;;;;;5005103;28;20065;-35
2023/08/07 01:55:46;;;;;;;3.30;0.88;;;14.50;99.90;;;;;;5008721;28;20427;-35
2023/08/07 01:58:12;;;;;;;2.85;0.52;;;14.50;99.90;;;;;;5006673;28;20049;-35
2023/08/07 02:00:37;;;;;;;5.35;0.63;;;14.50;99.90;;;;;;5000850;28;20476;-35
2023/08/07 02:03:03;;;;;;;2.63;0.47;;;14.50;99.90;;;;;;5002366;28;20057;-35
2023/08/07 02:05:29;;;;;;;3.92;0.40;;;14.50;99.90;;;;;;5008842;28;20057;-35
2023/08/07 02:07:56;;;;;;;2.35;0.45;;;14.50;99.90;;;;;;5008278;28;20053;-35
2023/08/07 02:10:22;;;;;;;5.22;0.57;;;14.50;99.90;;;;;;5004879;28;20149;-35
2023/08/07 02:12:49;;;;;;;3.90;0.50;;;14.50;99.90;;;;;;5009674;28;20113;-35
2023/08/07 02:15:14;;;;;;;3.15;1.13;;;14.50;99.90;;;;;;5003270;28;20042;-35
2023/08/07 02:17:41;;;;;;;3.28;0.52;;;14.50;99.90;;;;;;5005090;28;20108;-35
2023/08/07 02:20:07;;;;;;;2.53;0.43;;;14.50;99.90;;;;;;5005030;28;20425;-35
2023/08/07 02:22:33;;;;;;;4.32;0.80;;;14.50;99.90;;;;;;5008774;28;20245;-35
2023/08/07 02:24:58;;;;;;;4.80;0.50;;;14.40;99.90;;;;;;5006723;28;20049;-35
2023/08/07 02:27:24;;;;;;;5.70;0.63;;;14.40;99.90;;;;;;5002993;28;20426;-35
2023/08/07 02:29:50;;;;;;;4.63;0.80;;;14.40;99.90;;;;;;4997444;28;20046;-35
2023/08/07 02:32:16;;;;;;;3.15;0.43;;;14.40;99.90;;;;;;5004748;28;20144;-35
2023/08/07 02:34:42;;;;;;;3.20;0.50;;;14.40;99.90;;;;;;4988760;28;20136;-35
2023/08/07 02:37:08;;;;;;;3.05;0.57;;;14.40;99.90;;;;;;5003986;28;20177;-35
2023/08/07 02:39:34;;;;;;;4.82;0.60;;;14.40;99.90;;;;;;5004278;28;20042;-35
2023/08/07 02:41:59;;;;;;;4.13;0.65;;;14.40;99.90;;;;;;4984962;28;20116;-35
2023/08/07 02:44:25;;;;;;;2.83;0.60;;;14.30;99.90;;;;;;5006981;28;20050;-35
2023/08/07 02:46:51;;;;;;;6.60;0.70;;;14.30;99.90;;;;;;5002042;28;20136;-35
2023/08/07 02:49:16;;;;;;;6.03;0.70;;;14.30;99.90;;;;;;5006013;28;20045;-35
2023/08/07 02:51:42;;;;;;;7.68;1.00;;;14.30;99.90;;;;;;5004058;28;20053;-35
2023/08/07 02:54:07;;;;;;;7.75;0.90;;;14.30;99.90;;;;;;5005959;28;20058;-35
2023/08/07 02:56:33;;;;;;;4.20;0.80;;;14.20;99.90;;;;;;5012696;28;20053;-35
2023/08/07 02:59:01;;;;;;;7.63;0.98;;;14.20;99.90;;;;;;5006423;28;20045;-35
2023/08/07 03:01:27;;;;;;;5.93;0.60;;;14.20;99.90;;;;;;4992946;28;20510;-35
2023/08/07 03:03:53;;;;;;;5.75;1.00;;;14.20;99.90;;;;;;5011372;28;20527;-35
2023/08/07 03:06:19;;;;;;;9.98;1.33;;;14.30;99.90;;;;;;5008517;28;20188;-35
2023/08/07 03:08:44;;;;;;;8.70;0.95;;;14.30;99.90;;;;;;5010366;28;20519;-35
2023/08/07 03:11:10;;;;;;;12.00;1.25;;;14.30;99.90;;;;;;5006905;28;20041;-35
2023/08/07 03:13:36;;;;;;;5.35;0.95;;;14.30;99.90;;;;;;5008048;28;20065;-35
2023/08/07 03:16:07;;;;;;;6.57;1.17;;;14.30;99.90;;;;;;5010583;28;20068;-35
2023/08/07 03:18:33;;;;;;;7.45;1.35;;;14.30;99.90;;;;;;5005396;28;20057;-35
2023/08/07 03:20:59;;;;;;;7.97;1.00;;;14.40;99.90;;;;;;5007856;28;20073;-35
2023/08/07 03:23:26;;;;;;;4.00;0.90;;;14.40;99.90;;;;;;5012492;28;20046;-35
2023/08/07 03:26:01;;;;;;;5.70;1.15;;;14.40;99.90;;;;;;5010829;28;20052;-35
2023/08/07 03:28:27;;;;;;;10.05;1.65;;;14.40;99.90;;;;;;5004843;28;20408;-35
2023/08/07 03:30:52;;;;;;;4.50;0.95;;;14.40;99.90;;;;;;5007221;28;20058;-35
2023/08/07 03:33:18;;;;;;;11.77;1.63;;;14.40;99.90;;;;;;5004312;28;20053;-35
2023/08/07 03:35:44;;;;;;;9.98;1.05;;;14.40;99.90;;;;;;5009843;28;20050;-35
2023/08/07 03:38:09;;;;;;;7.57;1.10;;;14.40;99.90;;;;;;5009195;28;20061;-35
2023/08/07 03:40:35;;;;;;;6.28;1.30;;;14.30;99.90;;;;;;5007402;28;20121;-35
2023/08/07 03:43:00;;;;;;;9.48;1.40;;;14.30;99.90;;;;;;5005288;28;20136;-35
2023/08/07 03:45:26;;;;;;;7.05;1.48;;;14.40;99.90;;;;;;5005416;28;20136;-35
2023/08/07 03:47:52;;;;;;;4.47;0.93;;;14.40;99.90;;;;;;5008918;28;20057;-35
2023/08/07 03:50:17;;;;;;;7.03;1.40;;;14.30;99.90;;;;;;5004353;28;20057;-35
2023/08/07 03:52:43;;;;;;;8.00;1.45;;;14.30;99.90;;;;;;5008818;28;20515;-35
2023/08/07 03:55:09;;;;;;;5.97;0.80;;;14.30;99.90;;;;;;5012901;28;20042;-35
2023/08/07 03:57:35;;;;;;;2.83;0.60;;;14.30;99.90;;;;;;5008755;28;20080;-35
2023/08/07 04:00:00;;;;;;;4.20;0.57;;;14.30;99.90;;;;;;5009603;28;20081;-35
2023/08/07 04:02:27;;;;;;;2.85;0.60;;;14.30;99.90;;;;;;5007541;28;20126;-35
2023/08/07 04:04:53;;;;;;;3.30;0.70;;;14.20;99.90;;;;;;4993758;28;20064;-35
2023/08/07 04:07:18;;;;;;;4.47;0.80;;;14.20;99.90;;;;;;5002614;28;20433;-35
2023/08/07 04:09:44;;;;;;;3.38;1.10;;;14.20;99.90;;;;;;5006512;28;20064;-35
2023/08/07 04:12:10;;;;;;;2.80;1.10;;;14.20;99.90;;;;;;5006368;28;20064;-35
2023/08/07 04:14:35;;;;;;;3.92;0.82;;;14.20;99.90;;;;;;5005813;28;20203;-35
2023/08/07 04:17:01;;;;;;;7.88;1.27;;;14.20;99.90;;;;;;5002488;28;20452;-35
2023/08/07 04:19:27;;;;;;;6.32;1.38;;;14.20;99.90;;;;;;4983058;28;20069;-35
2023/08/07 04:21:53;;;;;;;4.10;1.00;;;14.20;99.90;;;;;;5000102;28;20093;-35
2023/08/07 04:24:19;;;;;;;4.60;1.30;;;14.20;99.90;;;;;;5003619;28;20052;-35
2023/08/07 04:26:44;;;;;;;5.13;0.90;;;14.20;99.90;;;;;;4987707;28;20054;-35
2023/08/07 04:29:10;;;;;;;6.70;1.40;;;14.30;99.90;;;;;;4987341;28;20132;-35
2023/08/07 04:31:36;;;;;;;4.95;1.02;;;14.30;99.90;;;;;;5002390;28;20061;-35
2023/08/07 04:34:01;;;;;;;7.25;1.20;;;14.30;99.90;;;;;;5001025;28;20058;-35
2023/08/07 04:36:27;;;;;;;3.88;1.38;;;14.30;99.90;;;;;;5002583;28;20050;-35
2023/08/07 04:38:55;;;;;;;8.80;1.20;;;14.30;99.90;;;;;;5001737;28;20061;-35
2023/08/07 04:41:21;;;;;;;8.43;1.42;;;14.30;99.90;;;;;;4999188;28;20527;-35
2023/08/07 04:43:48;;;;;;;7.82;1.90;;;14.30;99.90;;;;;;5005246;28;20045;-35
2023/08/07 04:46:14;;;;;;;9.40;1.20;;;14.30;99.90;;;;;;5009811;28;20058;-35
2023/08/07 04:48:40;;;;;;;11.80;1.65;;;14.30;99.90;;;;;;5000924;28;20499;-35
2023/08/07 04:51:06;;;;;;;6.65;1.38;;;14.30;99.90;;;;;;5004651;28;20053;-35
2023/08/07 04:53:31;;;;;;;6.43;1.42;;;14.40;99.90;;;;;;4996442;28;20077;-35
2023/08/07 04:55:59;;;;;;;9.05;1.42;;;14.40;99.90;;;;;;4990207;28;20050;-35
2023/08/07 04:58:24;;;;;;;7.95;1.20;;;14.50;99.90;;;;;;5002194;28;20050;-35
2023/08/07 05:00:55;;;;;;;5.35;1.27;;;14.50;99.90;;;;;;5002117;28;20064;-35
2023/08/07 05:03:21;;;;;;;4.93;1.13;;;14.50;99.90;;;;;;5010563;28;20050;-35
2023/08/07 05:05:47;;;;;;;7.57;1.10;;;14.50;99.90;;;;;;4994938;28;20451;-35
2023/08/07 05:08:12;;;;;;;3.88;0.90;;;14.50;99.90;;;;;;5011605;28;20061;-35
2023/08/07 05:10:38;;;;;;;5.15;1.00;;;14.60;99.90;;;;;;5010139;28;20045;-35
2023/08/07 05:13:03;;;;;;;7.55;0.73;;;14.60;99.90;;;;;;5006879;28;20042;-35
2023/08/07 05:15:30;;;;;;;6.78;1.20;;;14.60;99.90;;;;;;5008123;28;20065;-35
2023/08/07 05:17:56;;;;;;;5.38;1.08;;;14.60;99.90;;;;;;4989483;28;20088;-35
2023/08/07 05:20:22;;;;;;;8.15;1.35;;;14.50;99.90;;;;;;5005099;28;20069;-35
2023/08/07 05:22:48;;;;;;;4.45;1.40;;;14.50;99.90;;;;;;5003883;28;20096;-35
2023/08/07 05:25:16;;;;;;;5.60;1.35;;;14.50;99.90;;;;;;5012427;28;20085;-35
2023/08/07 05:27:43;;;;;;;5.63;0.90;;;14.50;99.90;;;;;;5005214;28;20081;-35
2023/08/07 05:30:09;;;;;;;6.10;1.25;;;14.50;99.90;;;;;;5005682;28;20054;-35
2023/08/07 05:32:37;;;;;;;4.13;1.00;;;14.50;99.90;;;;;;5002774;28;20073;-36
2023/08/07 05:35:05;;;;;;;2.95;0.80;;;14.50;99.90;;;;;;5000455;28;20492;-36
2023/08/07 05:37:31;;;;;;;6.93;0.90;;;14.40;99.90;;;;;;5001978;28;20118;-36
2023/08/07 05:39:57;;;;;;;11.85;1.25;;;14.40;99.90;;;;;;5010401;28;20127;-36
2023/08/07 05:42:23;;;;;;;3.83;1.20;;;14.50;99.90;;;;;;5000226;28;20514;-36
2023/08/07 05:44:49;;;;;;;3.35;0.88;;;14.50;99.90;;;;;;4999129;28;20054;-36
2023/08/07 05:47:14;;;;;;;6.82;1.40;;;14.60;99.90;;;;;;5012051;28;20054;-36
2023/08/07 05:49:40;;;;;;;7.07;2.10;;;14.70;99.90;;;;;;5000312;28;20050;-36
2023/08/07 05:52:06;;;;;;;6.13;1.20;;;14.80;99.90;;;;;;4998686;28;20046;-36
2023/08/07 05:54:32;;;;;;;7.60;1.25;;;15.00;99.90;;;;;;4997938;28;20062;-36
2023/08/07 05:56:58;;;;;;;7.43;1.10;;;15.10;99.90;;;;;;4991142;28;20100;-37
2023/08/07 05:59:23;;;;;;;5.05;1.15;;;15.10;99.90;;;;;;4997304;28;20061;-36
2023/08/07 06:01:49;;;;;;;6.03;1.40;;;15.00;99.90;;;;;;5014731;28;20537;-36
2023/08/07 06:04:15;;;;;;;9.85;2.10;;;15.00;99.90;;;;;;5009080;28;20251;-37
2023/08/07 06:06:42;;;;;;;5.25;1.15;;;14.80;99.90;;;;;;5009006;28;20054;-36
2023/08/07 06:09:08;;;;;;;7.90;1.02;;;14.70;99.90;;;;;;5010698;28;20077;-37
2023/08/07 06:11:34;;;;;;;5.15;1.25;;;14.70;99.90;;;;;;5008340;28;20058;-36
2023/08/07 06:14:00;;;;;;;9.20;1.75;;;14.60;99.90;;;;;;5009982;28;20465;-37
2023/08/07 06:16:26;;;;;;;7.30;1.65;;;14.60;99.90;;;;;;5013715;28;20057;-37
2023/08/07 06:18:51;;;;;;;7.50;1.50;;;14.60;99.90;;;;;;5008110;28;20054;-36
2023/08/07 06:21:17;;;;;;;5.75;1.40;;;14.60;99.90;;;;;;4992476;28;20550;-37
2023/08/07 06:23:43;;;;;;;4.32;1.20;;;14.70;99.90;;;;;;5009796;28;20050;-37
2023/08/07 06:26:08;;;;;;;6.03;1.35;;;14.70;99.90;;;;;;5003154;28;20511;-36
2023/08/07 06:28:38;;;;;;;5.28;1.38;;;14.80;99.90;;;;;;5011603;28;20137;-36
2023/08/07 06:31:09;;;;;;;8.07;1.40;;;14.90;99.90;;;;;;5021318;28;20049;-36
2023/08/07 06:33:35;;;;;;;5.10;1.05;;;14.90;99.90;;;;;;5018170;28;20046;-36
2023/08/07 06:36:02;;;;;;;5.30;1.20;;;15.00;99.90;;;;;;5016631;28;20050;-36
2023/08/07 06:38:28;;;;;;;5.45;1.38;;;15.00;99.90;;;;;;5015262;28;20483;-36
2023/08/07 06:40:53;;;;;;;5.03;1.40;;;15.10;99.90;;;;;;5009672;28;20058;-36
2023/08/07 06:43:19;;;;;;;11.77;1.55;;;15.10;99.90;;;;;;5008981;28;20061;-36
2023/08/07 06:45:55;;;;;;;8.25;1.48;;;15.10;99.90;;;;;;5010302;28;20042;-37
2023/08/07 06:48:21;;;;;;;8.30;1.42;;;15.20;99.90;;;;;;5012950;28;20057;-36
2023/08/07 06:50:47;;;;;;;6.65;1.67;;;15.20;99.90;;;;;;5013355;28;20439;-36
2023/08/07 06:53:13;;;;;;;6.10;1.60;;;15.20;99.90;;;;;;5012568;28;20078;-36
2023/08/07 06:55:41;;;;;;;8.32;1.83;;;15.30;99.90;;;;;;5011698;28;20064;-36
2023/08/07 06:58:06;;;;;;;6.47;1.02;;;15.30;99.90;;;;;;5016787;28;20060;-36
2023/08/07 07:00:33;;;;;;;4.80;1.27;;;15.40;99.90;;;;;;5010048;28;20133;-37
2023/08/07 07:02:59;;;;;;;5.63;1.10;;;15.30;99.90;;;;;;5013525;28;20049;-36
2023/08/07 07:05:25;;;;;;;11.70;1.50;;;15.40;99.90;;;;;;5012234;28;20400;-37
2023/08/07 07:07:50;;;;;;;7.25;1.42;;;15.40;99.90;;;;;;5005208;28;20046;-37
2023/08/07 07:10:16;;;;;;;7.07;1.38;;;15.40;99.90;;;;;;5008449;28;20050;-36
2023/08/07 07:12:42;;;;;;;6.80;1.42;;;15.50;99.90;;;;;;5008558;28;20112;-36
2023/08/07 07:15:09;;;;;;;9.50;1.42;;;15.50;99.90;;;;;;5012178;28;20066;-37
2023/08/07 07:17:35;;;;;;;8.20;2.05;;;15.60;99.90;;;;;;5017336;28;20083;-37
2023/08/07 07:20:00;;;;;;;7.63;1.52;;;15.70;99.90;;;;;;5013376;28;20141;-36
2023/08/07 07:22:28;;;;;;;5.88;1.50;;;15.70;99.90;;;;;;5011290;28;20056;-37
2023/08/07 07:24:54;;;;;;;3.95;1.02;;;15.80;99.90;;;;;;5007899;28;20057;-36
2023/08/07 07:27:22;;;;;;;6.85;1.77;;;15.90;99.90;;;;;;5007648;28;20058;-36
2023/08/07 07:29:50;;;;;;;6.13;1.00;;;15.90;99.90;;;;;;5012086;28;20107;-36
2023/08/07 07:32:16;;;;;;;6.22;1.13;;;15.80;99.90;;;;;;5007124;28;20056;-36
2023/08/07 07:34:42;;;;;;;5.80;1.02;;;15.70;99.90;;;;;;5006241;28;20385;-37
2023/08/07 07:37:07;;;;;;;2.42;0.77;;;15.50;99.90;;;;;;4998538;28;20056;-36
2023/08/07 07:39:34;;;;;;;5.88;0.85;;;15.30;99.90;;;;;;5005879;28;20103;-36
2023/08/07 07:42:00;;;;;;;3.65;1.00;;;15.10;99.90;;;;;;5010419;28;20092;-36
2023/08/07 07:44:25;;;;;;;3.17;0.90;;;15.00;99.90;;;;;;5008662;28;20081;-36
2023/08/07 07:46:51;;;;;;;5.10;1.02;;;14.80;99.90;;;;;;5012573;28;20093;-36
2023/08/07 07:49:17;;;;;;;4.65;0.90;;;14.70;99.90;;;;;;5009027;28;20054;-36
2023/08/07 07:51:44;;;;;;;2.65;0.70;;;14.70;99.90;;;;;;5014992;28;20050;-37
2023/08/07 07:54:10;;;;;;;7.07;1.35;;;14.60;99.90;;;;;;5008413;28;20112;-42
2023/08/07 07:56:36;;;;;;;2.60;1.08;;;14.80;99.90;;;;;;5011185;28;20046;-36
2023/08/07 07:59:01;;;;;;;4.47;1.10;;;15.00;99.90;;;;;;5018030;28;20058;-37
2023/08/07 08:01:28;;;;;;;5.03;1.00;;;15.30;99.90;;;;;;5007119;28;20691;-37
2023/08/07 08:03:54;;;;;;;8.52;1.13;;;15.50;99.90;;;;;;5006845;28;20046;-37
2023/08/07 08:06:19;;;;;;;5.68;1.40;;;15.50;99.90;;;;;;5010134;28;20065;-36
2023/08/07 08:08:45;;;;;;;6.95;1.30;;;15.60;99.90;;;;;;5007615;28;20045;-36
2023/08/07 08:11:11;;;;;;;7.60;2.03;;;15.70;99.90;;;;;;5008142;28;20053;-37
2023/08/07 08:13:39;;;;;;;5.20;1.13;;;16.00;99.90;;;;;;5009239;28;20058;-36
2023/08/07 08:16:05;;;;;;;4.30;0.88;;;16.20;99.90;;;;;;5012865;28;20507;-36
2023/08/07 08:18:31;;;;;;;4.30;1.15;;;16.20;99.90;;;;;;5009896;28;20050;-36
2023/08/07 08:20:57;;;;;;;8.48;1.48;;;16.10;99.90;;;;;;5006560;28;20046;-37
2023/08/07 08:23:22;;;;;;;3.05;0.80;;;15.90;99.90;;;;;;5013636;28;20491;-37
2023/08/07 08:25:48;;;;;;;4.47;1.30;;;15.80;99.90;;;;;;5012960;28;20042;-36
2023/08/07 08:28:15;;;;;;;7.68;1.20;;;15.60;99.90;;;;;;5015418;28;20081;-36
2023/08/07 08:30:41;;;;;;;7.57;1.35;;;15.40;99.90;;;;;;5008352;28;20046;-36
2023/08/07 08:33:09;;;;;;;5.40;1.33;;;15.30;99.90;;;;;;5008712;28;20380;-36
2023/08/07 08:35:35;;;;;;;5.40;1.13;;;15.20;99.90;;;;;;5011258;28;20053;-37
2023/08/07 08:38:01;;;;;;;6.63;1.20;;;15.40;99.90;;;;;;5011369;28;20053;-37
2023/08/07 08:40:26;;;;;;;5.63;1.20;;;15.60;99.90;;;;;;5018731;28;20050;-36
2023/08/07 08:42:56;;;;;;;6.10;1.10;;;15.80;99.90;;;;;;5016255;28;20054;-37
2023/08/07 08:45:22;;;;;;;3.78;0.93;;;16.00;99.90;;;;;;5016711;28;20050;-36
2023/08/07 08:47:51;;;;;;;8.50;1.40;;;16.20;99.90;;;;;;5012004;28;20054;-36
2023/08/07 08:50:17;;;;;;;6.00;1.55;;;16.30;99.90;;;;;;5014084;28;20053;-37
2023/08/07 08:52:44;;;;;;;8.90;1.40;;;16.40;99.90;;;;;;5011769;28;20064;-37
2023/08/07 08:55:12;;;;;;;3.13;0.88;;;16.30;99.90;;;;;;5014268;28;20057;-36
2023/08/07 08:57:39;;;;;;;8.05;1.25;;;16.30;99.90;;;;;;5013040;28;20095;-37
2023/08/07 09:00:15;;;;;;;6.10;1.35;;;16.50;99.90;;;;;;5009824;28;20065;-37
2023/08/07 09:02:43;;;;;;;5.57;1.27;;;16.60;99.90;;;;;;5011736;28;20081;-37
2023/08/07 09:05:09;;;;;;;3.88;0.82;;;16.60;99.90;;;;;;5012883;28;20147;-37
2023/08/07 09:07:35;;;;;;;5.70;1.50;;;16.70;99.90;;;;;;5010563;28;20061;-37
2023/08/07 09:10:03;;;;;;;3.75;0.70;;;16.90;99.90;;;;;;5012690;28;20609;-37
2023/08/07 09:12:33;;;;;;;4.57;0.63;;;17.10;99.90;;;;;;5004085;28;20527;-37
2023/08/07 09:15:01;;;;;;;6.07;1.02;;;17.20;99.90;;;;;;5012501;28;20050;-37
2023/08/07 09:17:35;;;;;;;4.63;0.90;;;17.30;99.90;;;;;;5006352;28;20050;-36
2023/08/07 09:20:01;;;;;;;5.00;0.90;;;17.30;99.90;;;;;;5012298;28;20495;-37
2023/08/07 09:22:27;;;;;;;3.83;0.90;;;17.20;99.90;;;;;;5010559;28;20066;-37
2023/08/07 09:24:53;;;;;;;5.47;1.02;;;17.10;99.90;;;;;;5008307;28;20049;-37
2023/08/07 09:27:20;;;;;;;4.10;1.05;;;17.20;99.90;;;;;;5010132;28;20056;-36
2023/08/07 09:29:46;;;;;;;4.63;0.80;;;17.20;99.90;;;;;;5016747;28;20056;-37
2023/08/07 09:32:12;;;;;;;6.18;1.17;;;17.20;99.90;;;;;;5014561;28;20423;-37
2023/08/07 09:34:42;;;;;;;6.90;1.10;;;17.30;99.90;;;;;;5015625;28;20712;-36
2023/08/07 09:37:09;;;;;;;5.28;0.77;;;17.20;99.90;;;;;;5015012;28;20057;-37
2023/08/07 09:39:36;;;;;;;3.95;0.85;;;17.30;99.90;;;;;;5016133;28;20054;-37
2023/08/07 09:42:03;;;;;;;5.85;1.08;;;17.50;99.90;;;;;;5009847;28;20045;-40
2023/08/07 09:44:36;;;;;;;5.88;0.85;;;17.50;99.90;;;;;;5013244;28;20495;-37
2023/08/07 09:47:15;;;;;;;5.00;1.20;;;17.40;99.90;;;;;;5011733;28;20058;-36
2023/08/07 09:49:41;;;;;;;6.28;0.93;;;17.20;99.90;;;;;;5006159;28;20419;-36
2023/08/07 09:52:09;;;;;;;4.82;1.05;;;17.00;99.90;;;;;;5013316;28;20065;-36
2023/08/07 09:54:35;;;;;;;5.50;1.27;;;16.80;99.90;;;;;;5012641;28;20500;-36
2023/08/07 09:57:02;;;;;;;10.38;1.40;;;16.60;99.90;;;;;;4996167;28;20081;-37
2023/08/07 09:59:29;;;;;;;6.05;1.83;;;16.40;99.90;;;;;;5016465;28;20054;-37
2023/08/07 10:01:55;;;;;;;7.65;1.30;;;16.30;99.90;;;;;;5013960;28;20469;-37
2023/08/07 10:04:26;;;;;;;4.68;1.15;;;16.20;99.90;;;;;;5008039;28;20136;-36
2023/08/07 10:06:52;;;;;;;7.25;1.17;;;16.20;99.90;;;;;;5007866;28;20089;-37
2023/08/07 10:09:18;;;;;;;6.28;1.17;;;16.30;99.90;;;;;;5009744;28;20050;-37
2023/08/07 10:11:44;;;;;;;7.97;1.15;;;16.50;99.90;;;;;;5005970;28;20144;-37
2023/08/07 10:14:11;;;;;;;8.77;1.10;;;16.70;99.90;;;;;;5003858;28;20153;-37
2023/08/07 10:16:41;;;;;;;6.18;1.02;;;17.00;99.90;;;;;;5011640;28;20057;-37
2023/08/07 10:19:07;;;;;;;4.05;0.95;;;17.30;99.90;;;;;;5012144;28;20869;-37
2023/08/07 10:21:38;;;;;;;5.38;0.90;;;17.30;99.90;;;;;;5012980;28;20057;-37
2023/08/07 10:24:05;;;;;;;3.92;0.93;;;17.30;99.90;;;;;;4990719;28;20057;-37
2023/08/07 10:26:37;;;;;;;4.95;1.08;;;17.20;99.90;;;;;;5011201;28;20577;-36
2023/08/07 10:29:06;;;;;;;4.90;1.00;;;17.30;99.90;;;;;;5010229;28;20119;-37
2023/08/07 10:31:34;;;;;;;5.55;1.08;;;17.50;99.90;;;;;;4992571;28;20458;-37
2023/08/07 10:34:01;;;;;;;7.80;1.23;;;17.70;99.90;;;;;;5011597;28;20107;-36
2023/08/07 10:36:34;;;;;;;7.53;0.70;;;17.80;99.90;;;;;;5006359;28;20060;-36
2023/08/07 10:39:14;;;;;;;4.03;0.90;;;17.60;99.90;;;;;;5013345;28;20055;-37
2023/08/07 10:41:44;;;;;;;6.28;0.93;;;17.40;99.90;;;;;;5009227;28;20057;-37
2023/08/07 10:44:29;;;;;;;5.60;0.98;;;17.30;99.90;;;;;;5010422;28;20050;-37
2023/08/07 10:46:56;;;;;;;7.35;1.17;;;17.30;99.90;;;;;;5006011;28;20057;-37
2023/08/07 10:49:38;;;;;;;5.80;0.90;;;17.40;99.90;;;;;;5011201;28;20056;-37
2023/08/07 10:52:14;;;;;;;4.57;0.83;;;17.60;99.90;;;;;;5008926;28;20050;-36
2023/08/07 10:54:49;;;;;;;2.38;0.65;;;17.90;99.90;;;;;;5001297;28;20511;-36
2023/08/07 10:57:16;;;;;;;4.80;0.85;;;18.10;99.90;;;;;;5016651;28;20066;-37
2023/08/07 11:00:05;;;;;;;7.43;0.93;;;18.10;99.90;;;;;;5017139;28;20055;-37
2023/08/07 11:02:33;;;;;;;6.95;1.05;;;18.20;99.90;;;;;;5007319;28;20084;-37
2023/08/07 11:04:59;;;;;;;6.50;0.93;;;18.00;99.90;;;;;;5012761;28;20188;-37
2023/08/07 11:07:26;;;;;;;3.80;0.73;;;17.90;99.90;;;;;;5008373;28;20133;-37
2023/08/07 11:09:52;;;;;;;6.88;0.88;;;17.90;99.90;;;;;;5010201;28;20084;-37
2023/08/07 11:12:18;;;;;;;6.15;0.90;;;18.00;99.90;;;;;;5004826;28;20069;-36
2023/08/07 11:14:44;;;;;;;2.38;0.40;;;18.00;99.90;;;;;;5013128;28;20053;-37
2023/08/07 11:17:10;;;;;;;3.10;0.85;;;18.20;99.90;;;;;;5010227;28;20459;-37
2023/08/07 11:19:36;;;;;;;4.00;0.75;;;18.30;99.90;;;;;;5007140;28;20050;-36
2023/08/07 11:22:01;;;;;;;6.30;0.77;;;18.40;99.90;;;;;;5009853;28;20064;-37
2023/08/07 11:24:28;;;;;;;3.60;0.63;;;18.50;99.90;;;;;;5009491;28;20056;-37
2023/08/07 11:26:56;;;;;;;3.55;0.65;;;18.60;99.90;;;;;;5008141;28;20100;-37
2023/08/07 11:29:24;;;;;;;4.00;0.80;;;18.40;99.90;;;;;;5012046;28;20049;-37
2023/08/07 11:31:50;;;;;;;5.22;0.70;;;18.20;99.90;;;;;;4993082;28;20076;-36
2023/08/07 11:34:20;;;;;;;7.25;0.80;;;18.20;99.90;;;;;;5012387;28;20053;-37
2023/08/07 11:36:46;;;;;;;3.45;0.68;;;18.30;99.90;;;;;;5007248;28;20061;-37
2023/08/07 11:39:13;;;;;;;2.03;0.60;;;18.30;99.90;;;;;;5007292;28;20053;-37
2023/08/07 11:41:38;;;;;;;4.25;0.80;;;18.20;99.90;;;;;;5007218;28;20415;-37
2023/08/07 11:44:04;;;;;;;2.83;0.57;;;18.30;99.90;;;;;;5006863;28;20060;-37
2023/08/07 11:46:30;;;;;;;6.18;1.17;;;18.30;99.90;;;;;;5009180;28;20124;-37
2023/08/07 11:48:56;;;;;;;3.83;0.90;;;18.30;99.90;;;;;;5007726;28;20099;-38
2023/08/07 11:51:23;;;;;;;6.07;0.80;;;18.40;99.90;;;;;;5009573;28;20058;-37
2023/08/07 11:53:49;;;;;;;3.67;0.73;;;18.40;99.90;;;;;;5008867;28;20573;-37
2023/08/07 11:56:14;;;;;;;2.60;0.50;;;18.40;99.90;;;;;;4990947;28;20141;-37
2023/08/07 11:58:48;;;;;;;3.08;0.70;;;18.50;99.90;;;;;;5009064;28;20409;-37
2023/08/07 12:01:15;;;;;;;2.10;0.68;;;18.40;99.90;;;;;;5007689;28;20056;-37
2023/08/07 12:04:08;;;;;;;6.03;0.70;;;18.60;99.90;;;;;;5009478;28;20127;-37
2023/08/07 12:06:43;;;;;;;2.15;0.47;;;18.70;99.90;;;;;;5017326;28;20487;-37
2023/08/07 12:09:12;;;;;;;3.42;0.77;;;18.60;99.90;;;;;;5005190;28;20057;-37
2023/08/07 12:11:38;;;;;;;2.83;0.60;;;18.60;99.90;;;;;;5006898;28;20107;-37
2023/08/07 12:14:04;;;;;;;3.78;0.95;;;18.60;99.90;;;;;;5008748;28;20133;-37
2023/08/07 12:16:34;;;;;;;3.78;0.93;;;18.40;99.90;;;;;;5010588;28;20048;-37
2023/08/07 12:19:00;;;;;;;2.67;0.60;;;18.30;99.90;;;;;;5009452;28;20082;-37
2023/08/07 12:21:27;;;;;;;2.30;0.77;;;18.20;99.90;;;;;;5011319;28;20104;-37
2023/08/07 12:23:57;;;;;;;4.85;1.02;;;18.30;99.90;;;;;;5009505;28;20046;-37
2023/08/07 12:26:22;;;;;;;3.20;0.73;;;18.50;99.90;;;;;;5010147;28;20046;-36
2023/08/07 12:28:49;;;;;;;5.43;0.65;;;18.60;99.90;;;;;;5008205;28;20454;-37
2023/08/07 12:31:14;;;;;;;4.55;0.60;;;18.70;99.90;;;;;;4992159;28;20046;-37
2023/08/07 12:33:40;;;;;;;3.80;0.52;;;18.70;99.90;;;;;;5010851;28;20050;-37
2023/08/07 12:36:08;;;;;;;5.35;1.05;;;18.70;99.90;;;;;;5012306;28;20138;-37
2023/08/07 12:38:33;;;;;;;3.60;0.88;;;18.80;99.90;;;;;;5009137;28;20041;-36
2023/08/07 12:40:59;;;;;;;4.85;0.82;;;18.90;99.90;;;;;;5013292;28;20052;-37
2023/08/07 12:43:25;;;;;;;4.47;0.70;;;19.00;99.90;;;;;;5008182;28;20084;-37